sensor_id;sensor_type;location;lat;lon;timestamp;temperature;humidity
5128;DHT22;2582;48.770;9.190;2022-07-23T00:00:19;26.50;96.00
5128;DHT22;2582;48.770;9.190;2022-07-23T00:02:45;26.40;96.20
5128;DHT22;2582;48.770;9.190;2022-07-23T00:05:11;26.20;96.40
5128;DHT22;2582;48.770;9.190;2022-07-23T00:07:37;26.20;96.80
5128;DHT22;2582;48.770;9.190;2022-07-23T00:10:04;26.30;96.50
5128;DHT22;2582;48.770;9.190;2022-07-23T00:12:29;26.30;96.50
5128;DHT22;2582;48.770;9.190;2022-07-23T00:14:55;26.30;96.30
5128;DHT22;2582;48.770;9.190;2022-07-23T00:17:20;26.30;95.90
5128;DHT22;2582;48.770;9.190;2022-07-23T00:19:46;26.40;96.00
5128;DHT22;2582;48.770;9.190;2022-07-23T00:22:11;26.20;96.50
5128;DHT22;2582;48.770;9.190;2022-07-23T00:24:37;26.10;96.60
5128;DHT22;2582;48.770;9.190;2022-07-23T00:27:03;26.20;96.40
5128;DHT22;2582;48.770;9.190;2022-07-23T00:29:29;26.20;96.60
5128;DHT22;2582;48.770;9.190;2022-07-23T00:31:54;26.20;96.10
5128;DHT22;2582;48.770;9.190;2022-07-23T00:34:20;26.00;96.00
5128;DHT22;2582;48.770;9.190;2022-07-23T00:36:45;26.00;96.60
5128;DHT22;2582;48.770;9.190;2022-07-23T00:39:11;25.90;96.40
5128;DHT22;2582;48.770;9.190;2022-07-23T00:41:37;25.80;97.40
5128;DHT22;2582;48.770;9.190;2022-07-23T00:44:23;25.90;98.20
5128;DHT22;2582;48.770;9.190;2022-07-23T00:46:55;25.90;99.70
5128;DHT22;2582;48.770;9.190;2022-07-23T00:49:23;25.50;99.90
5128;DHT22;2582;48.770;9.190;2022-07-23T00:51:49;25.40;99.90
5128;DHT22;2582;48.770;9.190;2022-07-23T00:54:16;25.20;99.90
5128;DHT22;2582;48.770;9.190;2022-07-23T00:56:46;25.20;99.90
5128;DHT22;2582;48.770;9.190;2022-07-23T00:59:13;25.20;99.90
5128;DHT22;2582;48.770;9.190;2022-07-23T01:01:39;25.20;99.90
5128;DHT22;2582;48.770;9.190;2022-07-23T01:04:05;25.00;99.90
5128;DHT22;2582;48.770;9.190;2022-07-23T01:06:35;25.00;99.90
5128;DHT22;2582;48.770;9.190;2022-07-23T01:09:03;24.90;99.90
5128;DHT22;2582;48.770;9.190;2022-07-23T01:11:29;25.00;99.90
5128;DHT22;2582;48.770;9.190;2022-07-23T01:13:56;24.90;99.90
5128;DHT22;2582;48.770;9.190;2022-07-23T01:16:22;24.90;99.90
5128;DHT22;2582;48.770;9.190;2022-07-23T01:18:47;24.90;99.90
5128;DHT22;2582;48.770;9.190;2022-07-23T01:21:14;25.00;99.90
5128;DHT22;2582;48.770;9.190;2022-07-23T01:23:42;25.10;99.90
5128;DHT22;2582;48.770;9.190;2022-07-23T01:26:08;25.00;99.90
5128;DHT22;2582;48.770;9.190;2022-07-23T01:28:33;24.90;99.90
5128;DHT22;2582;48.770;9.190;2022-07-23T01:30:59;24.90;99.90
5128;DHT22;2582;48.770;9.190;2022-07-23T01:33:24;24.80;99.90
5128;DHT22;2582;48.770;9.190;2022-07-23T01:35:50;24.90;99.90
5128;DHT22;2582;48.770;9.190;2022-07-23T01:38:15;25.00;99.90
5128;DHT22;2582;48.770;9.190;2022-07-23T01:40:41;25.00;99.90
5128;DHT22;2582;48.770;9.190;2022-07-23T01:43:07;24.80;99.90
5128;DHT22;2582;48.770;9.190;2022-07-23T01:45:32;24.90;99.90
5128;DHT22;2582;48.770;9.190;2022-07-23T01:47:58;25.00;99.90
5128;DHT22;2582;48.770;9.190;2022-07-23T01:50:23;25.10;99.90
5128;DHT22;2582;48.770;9.190;2022-07-23T01:52:49;25.20;99.90
5128;DHT22;2582;48.770;9.190;2022-07-23T01:55:14;25.00;99.90
5128;DHT22;2582;48.770;9.190;2022-07-23T01:57:40;25.00;99.90
5128;DHT22;2582;48.770;9.190;2022-07-23T02:00:06;25.10;99.90
5128;DHT22;2582;48.770;9.190;2022-07-23T02:02:32;24.80;99.90
5128;DHT22;2582;48.770;9.190;2022-07-23T02:04:57;24.60;99.90
5128;DHT22;2582;48.770;9.190;2022-07-23T02:07:23;24.60;99.90
5128;DHT22;2582;48.770;9.190;2022-07-23T02:09:49;24.60;99.90
5128;DHT22;2582;48.770;9.190;2022-07-23T02:12:14;24.60;99.90
5128;DHT22;2582;48.770;9.190;2022-07-23T02:14:40;24.60;99.90
5128;DHT22;2582;48.770;9.190;2022-07-23T02:17:05;24.60;99.90
5128;DHT22;2582;48.770;9.190;2022-07-23T02:19:31;24.80;99.90
5128;DHT22;2582;48.770;9.190;2022-07-23T02:21:57;24.70;99.90
5128;DHT22;2582;48.770;9.190;2022-07-23T02:24:23;24.60;99.90
5128;DHT22;2582;48.770;9.190;2022-07-23T02:26:48;24.40;99.90
5128;DHT22;2582;48.770;9.190;2022-07-23T02:29:14;24.30;99.90
5128;DHT22;2582;48.770;9.190;2022-07-23T02:31:40;24.20;99.90
5128;DHT22;2582;48.770;9.190;2022-07-23T02:34:06;24.30;99.90
5128;DHT22;2582;48.770;9.190;2022-07-23T02:36:32;24.20;99.90
5128;DHT22;2582;48.770;9.190;2022-07-23T02:38:58;24.00;99.90
5128;DHT22;2582;48.770;9.190;2022-07-23T02:41:23;24.00;99.90
5128;DHT22;2582;48.770;9.190;2022-07-23T02:43:49;24.00;99.90
5128;DHT22;2582;48.770;9.190;2022-07-23T02:46:15;23.90;99.90
5128;DHT22;2582;48.770;9.190;2022-07-23T02:48:40;23.90;99.90
5128;DHT22;2582;48.770;9.190;2022-07-23T02:51:06;23.90;99.90
5128;DHT22;2582;48.770;9.190;2022-07-23T02:53:32;23.90;99.90
5128;DHT22;2582;48.770;9.190;2022-07-23T02:55:57;23.90;99.90
5128;DHT22;2582;48.770;9.190;2022-07-23T02:58:23;24.10;99.90
5128;DHT22;2582;48.770;9.190;2022-07-23T03:00:50;24.10;99.90
5128;DHT22;2582;48.770;9.190;2022-07-23T03:03:16;24.10;99.90
5128;DHT22;2582;48.770;9.190;2022-07-23T03:05:41;24.10;99.90
5128;DHT22;2582;48.770;9.190;2022-07-23T03:08:07;24.20;99.90
5128;DHT22;2582;48.770;9.190;2022-07-23T03:10:32;24.20;99.90
5128;DHT22;2582;48.770;9.190;2022-07-23T03:12:58;24.20;99.90
5128;DHT22;2582;48.770;9.190;2022-07-23T03:15:23;24.30;99.90
5128;DHT22;2582;48.770;9.190;2022-07-23T03:17:49;24.30;99.90
5128;DHT22;2582;48.770;9.190;2022-07-23T03:20:14;24.40;99.90
5128;DHT22;2582;48.770;9.190;2022-07-23T03:22:40;24.40;99.90
5128;DHT22;2582;48.770;9.190;2022-07-23T03:25:06;24.40;99.90
5128;DHT22;2582;48.770;9.190;2022-07-23T03:27:32;24.30;99.90
5128;DHT22;2582;48.770;9.190;2022-07-23T03:29:58;24.20;99.90
5128;DHT22;2582;48.770;9.190;2022-07-23T03:32:24;24.10;99.90
5128;DHT22;2582;48.770;9.190;2022-07-23T03:34:51;24.00;99.90
5128;DHT22;2582;48.770;9.190;2022-07-23T03:37:18;23.90;99.90
5128;DHT22;2582;48.770;9.190;2022-07-23T03:39:43;23.90;99.90
5128;DHT22;2582;48.770;9.190;2022-07-23T03:42:09;24.00;99.90
5128;DHT22;2582;48.770;9.190;2022-07-23T03:44:35;24.00;99.90
5128;DHT22;2582;48.770;9.190;2022-07-23T03:47:02;23.90;99.90
5128;DHT22;2582;48.770;9.190;2022-07-23T03:49:28;23.70;99.90
5128;DHT22;2582;48.770;9.190;2022-07-23T03:51:54;23.60;99.90
5128;DHT22;2582;48.770;9.190;2022-07-23T03:54:19;23.60;99.90
5128;DHT22;2582;48.770;9.190;2022-07-23T03:56:45;23.60;99.90
5128;DHT22;2582;48.770;9.190;2022-07-23T03:59:10;23.60;99.90
5128;DHT22;2582;48.770;9.190;2022-07-23T04:01:36;23.60;99.90
5128;DHT22;2582;48.770;9.190;2022-07-23T04:04:02;23.40;99.90
5128;DHT22;2582;48.770;9.190;2022-07-23T04:06:28;23.30;99.90
5128;DHT22;2582;48.770;9.190;2022-07-23T04:08:54;23.30;99.90
5128;DHT22;2582;48.770;9.190;2022-07-23T04:11:20;23.50;99.90
5128;DHT22;2582;48.770;9.190;2022-07-23T04:13:45;23.60;99.90
5128;DHT22;2582;48.770;9.190;2022-07-23T04:16:11;23.60;99.90
5128;DHT22;2582;48.770;9.190;2022-07-23T04:18:37;23.60;99.90
5128;DHT22;2582;48.770;9.190;2022-07-23T04:21:03;23.60;99.90
5128;DHT22;2582;48.770;9.190;2022-07-23T04:23:29;23.60;99.90
5128;DHT22;2582;48.770;9.190;2022-07-23T04:25:54;23.50;99.90
5128;DHT22;2582;48.770;9.190;2022-07-23T04:28:20;23.50;99.90
5128;DHT22;2582;48.770;9.190;2022-07-23T04:30:45;23.60;99.90
5128;DHT22;2582;48.770;9.190;2022-07-23T04:33:11;23.70;99.90
5128;DHT22;2582;48.770;9.190;2022-07-23T04:35:37;23.90;99.90
5128;DHT22;2582;48.770;9.190;2022-07-23T04:38:03;24.00;99.90
5128;DHT22;2582;48.770;9.190;2022-07-23T04:40:29;24.10;99.90
5128;DHT22;2582;48.770;9.190;2022-07-23T04:42:55;24.00;99.90
5128;DHT22;2582;48.770;9.190;2022-07-23T04:45:21;24.00;99.90
5128;DHT22;2582;48.770;9.190;2022-07-23T04:47:46;24.00;99.90
5128;DHT22;2582;48.770;9.190;2022-07-23T04:50:12;24.10;99.90
5128;DHT22;2582;48.770;9.190;2022-07-23T04:52:38;24.00;99.90
5128;DHT22;2582;48.770;9.190;2022-07-23T04:55:04;24.00;99.90
5128;DHT22;2582;48.770;9.190;2022-07-23T04:57:30;23.90;99.90
5128;DHT22;2582;48.770;9.190;2022-07-23T04:59:55;24.10;99.90
5128;DHT22;2582;48.770;9.190;2022-07-23T05:02:21;24.30;99.90
5128;DHT22;2582;48.770;9.190;2022-07-23T05:04:46;24.10;99.90
5128;DHT22;2582;48.770;9.190;2022-07-23T05:07:12;24.10;99.90
5128;DHT22;2582;48.770;9.190;2022-07-23T05:09:38;24.20;99.90
5128;DHT22;2582;48.770;9.190;2022-07-23T05:12:04;24.40;99.90
5128;DHT22;2582;48.770;9.190;2022-07-23T05:14:29;24.70;99.90
5128;DHT22;2582;48.770;9.190;2022-07-23T05:16:55;24.90;99.90
5128;DHT22;2582;48.770;9.190;2022-07-23T05:19:21;24.60;99.90
5128;DHT22;2582;48.770;9.190;2022-07-23T05:21:47;24.50;99.90
5128;DHT22;2582;48.770;9.190;2022-07-23T05:24:13;24.40;99.90
5128;DHT22;2582;48.770;9.190;2022-07-23T05:26:38;24.40;99.90
5128;DHT22;2582;48.770;9.190;2022-07-23T05:29:04;24.30;99.90
5128;DHT22;2582;48.770;9.190;2022-07-23T05:31:29;24.30;99.90
5128;DHT22;2582;48.770;9.190;2022-07-23T05:33:55;24.30;99.90
5128;DHT22;2582;48.770;9.190;2022-07-23T05:36:21;24.30;99.90
5128;DHT22;2582;48.770;9.190;2022-07-23T05:38:46;24.50;99.90
5128;DHT22;2582;48.770;9.190;2022-07-23T05:41:12;24.60;99.90
5128;DHT22;2582;48.770;9.190;2022-07-23T05:43:37;24.60;99.90
5128;DHT22;2582;48.770;9.190;2022-07-23T05:46:03;24.70;99.90
5128;DHT22;2582;48.770;9.190;2022-07-23T05:48:29;24.50;99.90
5128;DHT22;2582;48.770;9.190;2022-07-23T05:50:55;24.60;99.90
5128;DHT22;2582;48.770;9.190;2022-07-23T05:53:20;24.80;99.90
5128;DHT22;2582;48.770;9.190;2022-07-23T05:55:46;24.70;99.90
5128;DHT22;2582;48.770;9.190;2022-07-23T05:58:11;24.50;99.90
5128;DHT22;2582;48.770;9.190;2022-07-23T06:00:37;24.60;99.90
5128;DHT22;2582;48.770;9.190;2022-07-23T06:03:03;24.80;99.90
5128;DHT22;2582;48.770;9.190;2022-07-23T06:05:28;24.90;99.90
5128;DHT22;2582;48.770;9.190;2022-07-23T06:07:54;25.10;99.90
5128;DHT22;2582;48.770;9.190;2022-07-23T06:10:20;25.30;99.90
5128;DHT22;2582;48.770;9.190;2022-07-23T06:12:45;25.20;99.90
5128;DHT22;2582;48.770;9.190;2022-07-23T06:15:11;25.30;99.90
5128;DHT22;2582;48.770;9.190;2022-07-23T06:17:38;25.40;99.90
5128;DHT22;2582;48.770;9.190;2022-07-23T06:20:08;25.60;99.90
5128;DHT22;2582;48.770;9.190;2022-07-23T06:22:34;25.60;99.90
5128;DHT22;2582;48.770;9.190;2022-07-23T06:27:28;25.60;99.90
5128;DHT22;2582;48.770;9.190;2022-07-23T06:29:54;25.70;99.90
5128;DHT22;2582;48.770;9.190;2022-07-23T06:32:20;25.80;99.90
5128;DHT22;2582;48.770;9.190;2022-07-23T06:34:46;25.70;99.90
5128;DHT22;2582;48.770;9.190;2022-07-23T06:37:11;25.60;99.90
5128;DHT22;2582;48.770;9.190;2022-07-23T06:39:37;25.70;99.90
5128;DHT22;2582;48.770;9.190;2022-07-23T06:42:02;25.80;99.90
5128;DHT22;2582;48.770;9.190;2022-07-23T06:44:28;26.00;99.90
5128;DHT22;2582;48.770;9.190;2022-07-23T06:46:54;26.00;99.90
5128;DHT22;2582;48.770;9.190;2022-07-23T06:49:20;25.90;99.90
5128;DHT22;2582;48.770;9.190;2022-07-23T06:51:45;25.50;99.90
5128;DHT22;2582;48.770;9.190;2022-07-23T06:54:11;25.40;99.90
5128;DHT22;2582;48.770;9.190;2022-07-23T06:56:37;25.20;99.90
5128;DHT22;2582;48.770;9.190;2022-07-23T06:59:02;25.10;99.90
5128;DHT22;2582;48.770;9.190;2022-07-23T07:01:28;25.00;99.90
5128;DHT22;2582;48.770;9.190;2022-07-23T07:03:54;25.10;99.90
5128;DHT22;2582;48.770;9.190;2022-07-23T07:06:20;25.00;99.90
5128;DHT22;2582;48.770;9.190;2022-07-23T07:08:45;25.20;99.90
5128;DHT22;2582;48.770;9.190;2022-07-23T07:11:11;25.20;99.90
5128;DHT22;2582;48.770;9.190;2022-07-23T07:13:37;24.90;99.90
5128;DHT22;2582;48.770;9.190;2022-07-23T07:16:03;24.80;99.90
5128;DHT22;2582;48.770;9.190;2022-07-23T07:18:29;24.90;99.90
5128;DHT22;2582;48.770;9.190;2022-07-23T07:20:56;25.00;99.90
5128;DHT22;2582;48.770;9.190;2022-07-23T07:23:22;24.90;99.90
5128;DHT22;2582;48.770;9.190;2022-07-23T07:25:47;24.80;99.90
5128;DHT22;2582;48.770;9.190;2022-07-23T07:28:13;24.50;99.90
5128;DHT22;2582;48.770;9.190;2022-07-23T07:30:38;24.30;99.90
5128;DHT22;2582;48.770;9.190;2022-07-23T07:33:04;24.20;99.90
5128;DHT22;2582;48.770;9.190;2022-07-23T07:35:30;24.10;99.90
5128;DHT22;2582;48.770;9.190;2022-07-23T07:37:58;24.40;99.90
5128;DHT22;2582;48.770;9.190;2022-07-23T07:40:23;24.60;99.90
5128;DHT22;2582;48.770;9.190;2022-07-23T07:42:53;24.70;99.90
5128;DHT22;2582;48.770;9.190;2022-07-23T07:45:23;24.80;99.90
5128;DHT22;2582;48.770;9.190;2022-07-23T07:47:51;24.50;99.90
5128;DHT22;2582;48.770;9.190;2022-07-23T07:50:17;24.40;99.90
5128;DHT22;2582;48.770;9.190;2022-07-23T07:52:42;24.20;99.90
5128;DHT22;2582;48.770;9.190;2022-07-23T07:55:09;24.20;99.90
5128;DHT22;2582;48.770;9.190;2022-07-23T07:57:35;24.30;99.90
5128;DHT22;2582;48.770;9.190;2022-07-23T08:00:01;24.20;99.90
5128;DHT22;2582;48.770;9.190;2022-07-23T08:02:27;24.20;99.90
5128;DHT22;2582;48.770;9.190;2022-07-23T08:04:52;24.00;99.90
5128;DHT22;2582;48.770;9.190;2022-07-23T08:07:18;24.10;99.90
5128;DHT22;2582;48.770;9.190;2022-07-23T08:09:44;24.50;99.90
5128;DHT22;2582;48.770;9.190;2022-07-23T08:12:09;24.60;99.90
5128;DHT22;2582;48.770;9.190;2022-07-23T08:14:35;24.50;99.90
5128;DHT22;2582;48.770;9.190;2022-07-23T08:17:00;24.70;99.90
5128;DHT22;2582;48.770;9.190;2022-07-23T08:19:26;24.80;99.90
5128;DHT22;2582;48.770;9.190;2022-07-23T08:21:52;24.70;99.90
5128;DHT22;2582;48.770;9.190;2022-07-23T08:24:17;25.00;99.90
5128;DHT22;2582;48.770;9.190;2022-07-23T08:26:43;25.20;99.90
5128;DHT22;2582;48.770;9.190;2022-07-23T08:29:09;24.90;99.90
5128;DHT22;2582;48.770;9.190;2022-07-23T08:31:35;25.00;99.90
5128;DHT22;2582;48.770;9.190;2022-07-23T08:34:00;25.00;99.90
5128;DHT22;2582;48.770;9.190;2022-07-23T08:36:28;25.20;99.90
5128;DHT22;2582;48.770;9.190;2022-07-23T08:38:54;24.90;99.90
5128;DHT22;2582;48.770;9.190;2022-07-23T08:41:20;25.00;99.90
5128;DHT22;2582;48.770;9.190;2022-07-23T08:43:46;25.30;99.90
5128;DHT22;2582;48.770;9.190;2022-07-23T08:46:13;25.40;99.90
5128;DHT22;2582;48.770;9.190;2022-07-23T08:48:39;25.30;99.90
5128;DHT22;2582;48.770;9.190;2022-07-23T08:51:06;25.30;99.90
5128;DHT22;2582;48.770;9.190;2022-07-23T08:53:33;25.40;99.90
5128;DHT22;2582;48.770;9.190;2022-07-23T08:56:02;25.30;99.90
5128;DHT22;2582;48.770;9.190;2022-07-23T08:58:29;25.40;99.90
5128;DHT22;2582;48.770;9.190;2022-07-23T09:00:56;25.60;99.90
5128;DHT22;2582;48.770;9.190;2022-07-23T09:05:52;25.90;99.90
5128;DHT22;2582;48.770;9.190;2022-07-23T09:08:24;26.20;99.90
5128;DHT22;2582;48.770;9.190;2022-07-23T09:10:58;26.50;99.90
5128;DHT22;2582;48.770;9.190;2022-07-23T09:13:39;26.80;99.60
5128;DHT22;2582;48.770;9.190;2022-07-23T09:16:13;26.90;99.40
5128;DHT22;2582;48.770;9.190;2022-07-23T09:18:51;27.00;99.00
5128;DHT22;2582;48.770;9.190;2022-07-23T09:21:26;27.20;98.20
5128;DHT22;2582;48.770;9.190;2022-07-23T09:26:40;27.50;97.50
5128;DHT22;2582;48.770;9.190;2022-07-23T09:29:17;27.70;97.50
5128;DHT22;2582;48.770;9.190;2022-07-23T09:36:40;28.20;95.30
5128;DHT22;2582;48.770;9.190;2022-07-23T09:39:06;28.50;95.10
5128;DHT22;2582;48.770;9.190;2022-07-23T09:41:41;28.50;94.50
5128;DHT22;2582;48.770;9.190;2022-07-23T09:44:25;28.10;95.20
5128;DHT22;2582;48.770;9.190;2022-07-23T09:46:58;28.00;95.00
5128;DHT22;2582;48.770;9.190;2022-07-23T09:49:23;28.00;94.70
5128;DHT22;2582;48.770;9.190;2022-07-23T09:51:56;27.90;94.90
5128;DHT22;2582;48.770;9.190;2022-07-23T09:54:31;27.70;94.90
5128;DHT22;2582;48.770;9.190;2022-07-23T09:57:02;27.20;95.30
5128;DHT22;2582;48.770;9.190;2022-07-23T09:59:31;27.10;95.90
5128;DHT22;2582;48.770;9.190;2022-07-23T10:01:59;27.30;95.90
5128;DHT22;2582;48.770;9.190;2022-07-23T10:04:26;27.70;96.10
5128;DHT22;2582;48.770;9.190;2022-07-23T10:06:54;27.80;95.00
5128;DHT22;2582;48.770;9.190;2022-07-23T10:09:32;28.20;94.40
5128;DHT22;2582;48.770;9.190;2022-07-23T10:12:04;28.20;94.50
5128;DHT22;2582;48.770;9.190;2022-07-23T10:14:50;27.90;95.30
5128;DHT22;2582;48.770;9.190;2022-07-23T10:17:16;28.10;94.80
5128;DHT22;2582;48.770;9.190;2022-07-23T10:19:42;27.90;95.30
5128;DHT22;2582;48.770;9.190;2022-07-23T10:22:11;27.90;96.10
5128;DHT22;2582;48.770;9.190;2022-07-23T10:30:45;28.20;95.00
5128;DHT22;2582;48.770;9.190;2022-07-23T10:33:32;28.90;94.10
5128;DHT22;2582;48.770;9.190;2022-07-23T10:36:11;29.20;92.60
5128;DHT22;2582;48.770;9.190;2022-07-23T10:38:51;29.30;92.80
5128;DHT22;2582;48.770;9.190;2022-07-23T10:44:21;28.70;92.60
5128;DHT22;2582;48.770;9.190;2022-07-23T10:46:59;28.40;92.70
5128;DHT22;2582;48.770;9.190;2022-07-23T10:49:43;28.30;92.40
5128;DHT22;2582;48.770;9.190;2022-07-23T10:52:24;28.60;92.10
5128;DHT22;2582;48.770;9.190;2022-07-23T10:54:55;28.70;90.80
5128;DHT22;2582;48.770;9.190;2022-07-23T10:57:25;29.10;90.10
5128;DHT22;2582;48.770;9.190;2022-07-23T11:02:29;29.10;89.60
5128;DHT22;2582;48.770;9.190;2022-07-23T11:05:00;29.20;90.30
5128;DHT22;2582;48.770;9.190;2022-07-23T11:07:26;29.30;89.90
5128;DHT22;2582;48.770;9.190;2022-07-23T11:09:52;29.60;89.60
5128;DHT22;2582;48.770;9.190;2022-07-23T11:15:09;29.30;90.00
5128;DHT22;2582;48.770;9.190;2022-07-23T11:20:21;29.80;90.60
5128;DHT22;2582;48.770;9.190;2022-07-23T11:22:54;29.60;90.10
5128;DHT22;2582;48.770;9.190;2022-07-23T11:27:49;30.40;88.90
5128;DHT22;2582;48.770;9.190;2022-07-23T11:33:16;30.80;86.40
5128;DHT22;2582;48.770;9.190;2022-07-23T11:35:44;31.40;85.80
5128;DHT22;2582;48.770;9.190;2022-07-23T11:40:39;31.80;83.60
5128;DHT22;2582;48.770;9.190;2022-07-23T11:43:07;31.60;83.00
5128;DHT22;2582;48.770;9.190;2022-07-23T11:45:38;31.20;85.20
5128;DHT22;2582;48.770;9.190;2022-07-23T11:48:05;30.40;87.80
5128;DHT22;2582;48.770;9.190;2022-07-23T11:50:31;30.80;87.00
5128;DHT22;2582;48.770;9.190;2022-07-23T11:52:57;32.10;84.80
5128;DHT22;2582;48.770;9.190;2022-07-23T11:55:23;33.20;82.00
5128;DHT22;2582;48.770;9.190;2022-07-23T11:57:51;34.30;76.90
5128;DHT22;2582;48.770;9.190;2022-07-23T12:00:22;34.20;76.30
5128;DHT22;2582;48.770;9.190;2022-07-23T12:02:53;34.40;75.50
5128;DHT22;2582;48.770;9.190;2022-07-23T12:07:53;35.30;71.90
5128;DHT22;2582;48.770;9.190;2022-07-23T12:10:25;34.20;72.80
5128;DHT22;2582;48.770;9.190;2022-07-23T12:13:01;34.10;72.60
5128;DHT22;2582;48.770;9.190;2022-07-23T12:15:35;33.60;74.30
5128;DHT22;2582;48.770;9.190;2022-07-23T12:18:04;33.10;74.40
5128;DHT22;2582;48.770;9.190;2022-07-23T12:20:39;33.00;76.20
5128;DHT22;2582;48.770;9.190;2022-07-23T12:23:06;35.00;71.30
5128;DHT22;2582;48.770;9.190;2022-07-23T12:28:21;34.40;72.60
5128;DHT22;2582;48.770;9.190;2022-07-23T12:30:54;35.00;69.60
5128;DHT22;2582;48.770;9.190;2022-07-23T12:36:00;35.10;67.30
5128;DHT22;2582;48.770;9.190;2022-07-23T12:38:28;34.20;67.60
5128;DHT22;2582;48.770;9.190;2022-07-23T12:41:01;33.20;69.50
5128;DHT22;2582;48.770;9.190;2022-07-23T12:43:46;33.40;70.40
5128;DHT22;2582;48.770;9.190;2022-07-23T12:46:21;33.40;69.50
5128;DHT22;2582;48.770;9.190;2022-07-23T12:51:26;33.80;70.40
5128;DHT22;2582;48.770;9.190;2022-07-23T12:54:06;33.80;70.80
5128;DHT22;2582;48.770;9.190;2022-07-23T12:56:34;33.40;70.40
5128;DHT22;2582;48.770;9.190;2022-07-23T12:59:08;33.60;70.40
5128;DHT22;2582;48.770;9.190;2022-07-23T13:01:36;33.40;70.70
5128;DHT22;2582;48.770;9.190;2022-07-23T13:04:06;33.20;72.50
5128;DHT22;2582;48.770;9.190;2022-07-23T13:06:35;34.10;69.60
5128;DHT22;2582;48.770;9.190;2022-07-23T13:09:02;34.90;69.80
5128;DHT22;2582;48.770;9.190;2022-07-23T13:11:28;34.30;67.70
5128;DHT22;2582;48.770;9.190;2022-07-23T13:13:54;33.50;68.40
5128;DHT22;2582;48.770;9.190;2022-07-23T13:16:20;32.70;71.20
5128;DHT22;2582;48.770;9.190;2022-07-23T13:18:45;31.90;73.30
5128;DHT22;2582;48.770;9.190;2022-07-23T13:21:11;32.20;72.20
5128;DHT22;2582;48.770;9.190;2022-07-23T13:23:37;32.00;71.20
5128;DHT22;2582;48.770;9.190;2022-07-23T13:26:03;32.50;70.60
5128;DHT22;2582;48.770;9.190;2022-07-23T13:28:29;33.10;69.00
5128;DHT22;2582;48.770;9.190;2022-07-23T13:30:55;34.20;66.70
5128;DHT22;2582;48.770;9.190;2022-07-23T13:33:21;34.70;65.30
5128;DHT22;2582;48.770;9.190;2022-07-23T13:35:48;34.80;63.80
5128;DHT22;2582;48.770;9.190;2022-07-23T13:38:14;34.90;63.00
5128;DHT22;2582;48.770;9.190;2022-07-23T13:40:42;34.50;63.90
5128;DHT22;2582;48.770;9.190;2022-07-23T13:43:13;35.30;62.40
5128;DHT22;2582;48.770;9.190;2022-07-23T13:45:40;35.60;61.30
5128;DHT22;2582;48.770;9.190;2022-07-23T13:48:08;35.40;62.80
5128;DHT22;2582;48.770;9.190;2022-07-23T13:50:34;35.40;63.20
5128;DHT22;2582;48.770;9.190;2022-07-23T13:53:02;35.00;64.70
5128;DHT22;2582;48.770;9.190;2022-07-23T13:55:28;35.60;62.60
5128;DHT22;2582;48.770;9.190;2022-07-23T13:57:53;35.40;61.50
5128;DHT22;2582;48.770;9.190;2022-07-23T14:00:19;36.40;59.60
5128;DHT22;2582;48.770;9.190;2022-07-23T14:02:45;36.70;59.10
5128;DHT22;2582;48.770;9.190;2022-07-23T14:05:11;35.50;59.80
5128;DHT22;2582;48.770;9.190;2022-07-23T14:07:37;34.20;63.00
5128;DHT22;2582;48.770;9.190;2022-07-23T14:10:04;33.60;64.70
5128;DHT22;2582;48.770;9.190;2022-07-23T14:12:30;33.00;65.80
5128;DHT22;2582;48.770;9.190;2022-07-23T14:14:56;32.90;65.80
5128;DHT22;2582;48.770;9.190;2022-07-23T14:17:21;32.70;67.10
5128;DHT22;2582;48.770;9.190;2022-07-23T14:19:47;33.50;66.10
5128;DHT22;2582;48.770;9.190;2022-07-23T14:22:12;34.20;64.70
5128;DHT22;2582;48.770;9.190;2022-07-23T14:24:38;35.00;61.90
5128;DHT22;2582;48.770;9.190;2022-07-23T14:27:04;35.60;59.70
5128;DHT22;2582;48.770;9.190;2022-07-23T14:29:30;36.90;57.90
5128;DHT22;2582;48.770;9.190;2022-07-23T14:31:57;37.90;57.10
5128;DHT22;2582;48.770;9.190;2022-07-23T14:34:22;38.40;55.90
5128;DHT22;2582;48.770;9.190;2022-07-23T14:36:48;38.30;54.00
5128;DHT22;2582;48.770;9.190;2022-07-23T14:39:14;38.00;53.20
5128;DHT22;2582;48.770;9.190;2022-07-23T14:41:40;36.40;55.00
5128;DHT22;2582;48.770;9.190;2022-07-23T14:44:06;35.90;55.90
5128;DHT22;2582;48.770;9.190;2022-07-23T14:46:32;36.10;56.40
5128;DHT22;2582;48.770;9.190;2022-07-23T14:48:57;37.50;54.00
5128;DHT22;2582;48.770;9.190;2022-07-23T14:51:23;37.70;53.20
5128;DHT22;2582;48.770;9.190;2022-07-23T14:53:48;38.20;52.20
5128;DHT22;2582;48.770;9.190;2022-07-23T14:56:14;37.20;52.90
5128;DHT22;2582;48.770;9.190;2022-07-23T14:58:40;36.30;53.30
5128;DHT22;2582;48.770;9.190;2022-07-23T15:01:06;36.30;54.40
5128;DHT22;2582;48.770;9.190;2022-07-23T15:03:32;36.70;53.10
5128;DHT22;2582;48.770;9.190;2022-07-23T15:05:58;36.50;53.20
5128;DHT22;2582;48.770;9.190;2022-07-23T15:08:24;36.30;53.00
5128;DHT22;2582;48.770;9.190;2022-07-23T15:10:50;35.30;54.10
5128;DHT22;2582;48.770;9.190;2022-07-23T15:13:16;35.40;54.90
5128;DHT22;2582;48.770;9.190;2022-07-23T15:15:41;34.90;55.70
5128;DHT22;2582;48.770;9.190;2022-07-23T15:18:07;35.20;55.20
5128;DHT22;2582;48.770;9.190;2022-07-23T15:20:32;35.10;54.70
5128;DHT22;2582;48.770;9.190;2022-07-23T15:22:58;35.80;53.60
5128;DHT22;2582;48.770;9.190;2022-07-23T15:25:23;35.90;54.60
5128;DHT22;2582;48.770;9.190;2022-07-23T15:27:49;35.50;55.00
5128;DHT22;2582;48.770;9.190;2022-07-23T15:30:15;35.20;56.60
5128;DHT22;2582;48.770;9.190;2022-07-23T15:32:41;35.70;55.00
5128;DHT22;2582;48.770;9.190;2022-07-23T15:35:07;35.80;54.80
5128;DHT22;2582;48.770;9.190;2022-07-23T15:37:34;36.00;55.30
5128;DHT22;2582;48.770;9.190;2022-07-23T15:40:00;36.80;54.50
5128;DHT22;2582;48.770;9.190;2022-07-23T15:42:26;37.30;53.70
5128;DHT22;2582;48.770;9.190;2022-07-23T15:44:52;36.80;53.70
5128;DHT22;2582;48.770;9.190;2022-07-23T15:47:18;36.40;54.00
5128;DHT22;2582;48.770;9.190;2022-07-23T15:49:45;36.70;53.90
5128;DHT22;2582;48.770;9.190;2022-07-23T15:52:11;37.00;53.10
5128;DHT22;2582;48.770;9.190;2022-07-23T15:54:37;36.90;53.80
5128;DHT22;2582;48.770;9.190;2022-07-23T15:57:04;36.30;53.60
5128;DHT22;2582;48.770;9.190;2022-07-23T15:59:30;36.10;54.10
5128;DHT22;2582;48.770;9.190;2022-07-23T16:01:56;36.30;53.50
5128;DHT22;2582;48.770;9.190;2022-07-23T16:04:22;35.80;54.70
5128;DHT22;2582;48.770;9.190;2022-07-23T16:06:47;35.60;55.10
5128;DHT22;2582;48.770;9.190;2022-07-23T16:09:13;35.80;54.80
5128;DHT22;2582;48.770;9.190;2022-07-23T16:11:39;35.80;54.10
5128;DHT22;2582;48.770;9.190;2022-07-23T16:14:04;36.00;54.20
5128;DHT22;2582;48.770;9.190;2022-07-23T16:16:30;35.70;55.60
5128;DHT22;2582;48.770;9.190;2022-07-23T16:18:56;35.00;56.40
5128;DHT22;2582;48.770;9.190;2022-07-23T16:21:23;34.90;56.80
5128;DHT22;2582;48.770;9.190;2022-07-23T16:23:49;34.90;56.60
5128;DHT22;2582;48.770;9.190;2022-07-23T16:26:15;34.60;56.70
5128;DHT22;2582;48.770;9.190;2022-07-23T16:28:43;35.20;55.70
5128;DHT22;2582;48.770;9.190;2022-07-23T16:31:09;35.50;54.50
5128;DHT22;2582;48.770;9.190;2022-07-23T16:33:36;35.70;54.20
5128;DHT22;2582;48.770;9.190;2022-07-23T16:36:02;35.60;54.80
5128;DHT22;2582;48.770;9.190;2022-07-23T16:38:27;35.10;54.90
5128;DHT22;2582;48.770;9.190;2022-07-23T16:40:53;34.60;56.30
5128;DHT22;2582;48.770;9.190;2022-07-23T16:43:21;33.70;58.10
5128;DHT22;2582;48.770;9.190;2022-07-23T16:45:47;33.30;59.70
5128;DHT22;2582;48.770;9.190;2022-07-23T16:48:13;32.30;62.30